sensor_id;sensor_type;location;lat;lon;timestamp;P1;durP1;ratioP1;P2;durP2;ratioP2
5776;SDS011;2914;42.668;23.346;2022-12-20T00:00:55;19.10;;;10.03;;
5776;SDS011;2914;42.668;23.346;2022-12-20T00:03:24;26.27;;;10.80;;
5776;SDS011;2914;42.668;23.346;2022-12-20T00:05:53;21.42;;;9.23;;
5776;SDS011;2914;42.668;23.346;2022-12-20T00:08:22;24.98;;;9.60;;
5776;SDS011;2914;42.668;23.346;2022-12-20T00:10:51;21.48;;;9.95;;
5776;SDS011;2914;42.668;23.346;2022-12-20T00:13:20;22.98;;;8.60;;
5776;SDS011;2914;42.668;23.346;2022-12-20T00:15:49;20.65;;;9.58;;
5776;SDS011;2914;42.668;23.346;2022-12-20T00:18:19;28.07;;;9.85;;
5776;SDS011;2914;42.668;23.346;2022-12-20T00:20:48;27.60;;;11.10;;
5776;SDS011;2914;42.668;23.346;2022-12-20T00:23:24;29.63;;;10.43;;
5776;SDS011;2914;42.668;23.346;2022-12-20T00:25:59;24.32;;;9.80;;
5776;SDS011;2914;42.668;23.346;2022-12-20T00:28:29;25.60;;;9.60;;
5776;SDS011;2914;42.668;23.346;2022-12-20T00:30:58;22.30;;;8.63;;
5776;SDS011;2914;42.668;23.346;2022-12-20T00:33:28;16.57;;;7.15;;
5776;SDS011;2914;42.668;23.346;2022-12-20T00:35:57;17.32;;;7.30;;
5776;SDS011;2914;42.668;23.346;2022-12-20T00:38:27;31.95;;;10.28;;
5776;SDS011;2914;42.668;23.346;2022-12-20T00:40:59;22.40;;;7.97;;
5776;SDS011;2914;42.668;23.346;2022-12-20T00:43:30;17.23;;;7.08;;
5776;SDS011;2914;42.668;23.346;2022-12-20T00:46:00;13.80;;;6.58;;
5776;SDS011;2914;42.668;23.346;2022-12-20T00:48:29;18.57;;;7.72;;
5776;SDS011;2914;42.668;23.346;2022-12-20T00:51:00;15.00;;;6.10;;
5776;SDS011;2914;42.668;23.346;2022-12-20T00:53:31;20.02;;;8.25;;
5776;SDS011;2914;42.668;23.346;2022-12-20T00:56:00;24.35;;;8.13;;
5776;SDS011;2914;42.668;23.346;2022-12-20T00:58:31;20.02;;;7.58;;
5776;SDS011;2914;42.668;23.346;2022-12-20T01:01:03;16.57;;;7.15;;
5776;SDS011;2914;42.668;23.346;2022-12-20T01:03:32;17.23;;;7.17;;
5776;SDS011;2914;42.668;23.346;2022-12-20T01:06:02;19.80;;;7.97;;
5776;SDS011;2914;42.668;23.346;2022-12-20T01:08:31;16.67;;;8.18;;
5776;SDS011;2914;42.668;23.346;2022-12-20T01:11:02;18.35;;;8.63;;
5776;SDS011;2914;42.668;23.346;2022-12-20T01:13:33;14.03;;;8.00;;
5776;SDS011;2914;42.668;23.346;2022-12-20T01:16:05;20.05;;;8.88;;
5776;SDS011;2914;42.668;23.346;2022-12-20T01:18:36;16.85;;;8.40;;
5776;SDS011;2914;42.668;23.346;2022-12-20T01:21:06;29.25;;;8.98;;
5776;SDS011;2914;42.668;23.346;2022-12-20T01:23:36;27.20;;;8.93;;
5776;SDS011;2914;42.668;23.346;2022-12-20T01:26:07;16.73;;;6.67;;
5776;SDS011;2914;42.668;23.346;2022-12-20T01:28:43;14.33;;;6.17;;
5776;SDS011;2914;42.668;23.346;2022-12-20T01:31:11;24.70;;;8.00;;
5776;SDS011;2914;42.668;23.346;2022-12-20T01:33:43;14.93;;;7.00;;
5776;SDS011;2914;42.668;23.346;2022-12-20T01:36:14;16.60;;;7.70;;
5776;SDS011;2914;42.668;23.346;2022-12-20T01:38:44;11.60;;;6.50;;
5776;SDS011;2914;42.668;23.346;2022-12-20T01:41:14;22.48;;;8.65;;
5776;SDS011;2914;42.668;23.346;2022-12-20T01:43:46;17.95;;;8.10;;
5776;SDS011;2914;42.668;23.346;2022-12-20T01:46:17;16.00;;;8.03;;
5776;SDS011;2914;42.668;23.346;2022-12-20T01:48:49;16.32;;;7.05;;
5776;SDS011;2914;42.668;23.346;2022-12-20T01:51:20;18.12;;;8.38;;
5776;SDS011;2914;42.668;23.346;2022-12-20T01:53:54;17.27;;;7.33;;
5776;SDS011;2914;42.668;23.346;2022-12-20T01:56:25;19.60;;;8.05;;
5776;SDS011;2914;42.668;23.346;2022-12-20T01:58:54;20.77;;;8.43;;
5776;SDS011;2914;42.668;23.346;2022-12-20T02:01:25;13.60;;;6.95;;
5776;SDS011;2914;42.668;23.346;2022-12-20T02:03:54;16.05;;;7.42;;
5776;SDS011;2914;42.668;23.346;2022-12-20T02:06:25;17.50;;;7.75;;
5776;SDS011;2914;42.668;23.346;2022-12-20T02:08:56;16.35;;;6.92;;
5776;SDS011;2914;42.668;23.346;2022-12-20T02:11:35;19.62;;;8.00;;
5776;SDS011;2914;42.668;23.346;2022-12-20T02:14:17;12.05;;;6.30;;
5776;SDS011;2914;42.668;23.346;2022-12-20T02:16:51;15.80;;;6.55;;
5776;SDS011;2914;42.668;23.346;2022-12-20T02:19:30;22.75;;;9.05;;
5776;SDS011;2914;42.668;23.346;2022-12-20T02:22:11;16.95;;;7.15;;
5776;SDS011;2914;42.668;23.346;2022-12-20T02:27:41;20.02;;;7.58;;
5776;SDS011;2914;42.668;23.346;2022-12-20T02:30:14;19.23;;;7.65;;
5776;SDS011;2914;42.668;23.346;2022-12-20T02:32:50;17.00;;;7.25;;
5776;SDS011;2914;42.668;23.346;2022-12-20T02:35:23;18.62;;;9.18;;
5776;SDS011;2914;42.668;23.346;2022-12-20T02:37:55;15.08;;;7.67;;
5776;SDS011;2914;42.668;23.346;2022-12-20T02:40:26;22.80;;;9.63;;
5776;SDS011;2914;42.668;23.346;2022-12-20T02:42:57;17.45;;;8.78;;
5776;SDS011;2914;42.668;23.346;2022-12-20T02:45:29;15.35;;;7.72;;
5776;SDS011;2914;42.668;23.346;2022-12-20T02:48:02;19.87;;;9.13;;
5776;SDS011;2914;42.668;23.346;2022-12-20T02:50:35;20.92;;;8.70;;
5776;SDS011;2914;42.668;23.346;2022-12-20T02:53:06;17.12;;;8.93;;
5776;SDS011;2914;42.668;23.346;2022-12-20T02:55:39;14.25;;;6.97;;
5776;SDS011;2914;42.668;23.346;2022-12-20T03:05:58;29.95;;;11.43;;
5776;SDS011;2914;42.668;23.346;2022-12-20T03:08:27;15.20;;;9.30;;
5776;SDS011;2914;42.668;23.346;2022-12-20T03:10:56;16.02;;;7.78;;
5776;SDS011;2914;42.668;23.346;2022-12-20T03:13:27;13.25;;;6.85;;
5776;SDS011;2914;42.668;23.346;2022-12-20T03:15:56;14.33;;;7.22;;
5776;SDS011;2914;42.668;23.346;2022-12-20T03:18:25;12.73;;;7.70;;
5776;SDS011;2914;42.668;23.346;2022-12-20T03:20:55;21.30;;;9.80;;
5776;SDS011;2914;42.668;23.346;2022-12-20T03:23:26;18.75;;;9.80;;
5776;SDS011;2914;42.668;23.346;2022-12-20T03:25:58;16.93;;;8.53;;
5776;SDS011;2914;42.668;23.346;2022-12-20T03:28:27;26.07;;;11.38;;
5776;SDS011;2914;42.668;23.346;2022-12-20T03:30:56;18.90;;;9.13;;
5776;SDS011;2914;42.668;23.346;2022-12-20T03:33:26;26.12;;;11.20;;
5776;SDS011;2914;42.668;23.346;2022-12-20T03:35:56;21.12;;;9.75;;
5776;SDS011;2914;42.668;23.346;2022-12-20T03:38:25;19.00;;;9.95;;
5776;SDS011;2914;42.668;23.346;2022-12-20T03:40:54;23.30;;;10.53;;
5776;SDS011;2914;42.668;23.346;2022-12-20T03:43:24;35.78;;;11.43;;
5776;SDS011;2914;42.668;23.346;2022-12-20T03:45:53;24.20;;;10.90;;
5776;SDS011;2914;42.668;23.346;2022-12-20T03:48:22;20.60;;;9.68;;
5776;SDS011;2914;42.668;23.346;2022-12-20T03:50:51;22.98;;;10.25;;
5776;SDS011;2914;42.668;23.346;2022-12-20T03:53:21;20.43;;;9.10;;
5776;SDS011;2914;42.668;23.346;2022-12-20T03:55:50;28.40;;;11.80;;
5776;SDS011;2914;42.668;23.346;2022-12-20T03:58:20;31.10;;;11.90;;
5776;SDS011;2914;42.668;23.346;2022-12-20T04:00:49;26.82;;;9.68;;
5776;SDS011;2914;42.668;23.346;2022-12-20T04:03:18;29.55;;;11.55;;
5776;SDS011;2914;42.668;23.346;2022-12-20T04:05:47;26.90;;;10.75;;
5776;SDS011;2914;42.668;23.346;2022-12-20T04:08:17;24.37;;;11.73;;
5776;SDS011;2914;42.668;23.346;2022-12-20T04:10:49;19.80;;;10.65;;
5776;SDS011;2914;42.668;23.346;2022-12-20T04:13:36;16.02;;;9.38;;
5776;SDS011;2914;42.668;23.346;2022-12-20T04:16:06;25.27;;;11.08;;
5776;SDS011;2914;42.668;23.346;2022-12-20T04:18:35;17.75;;;10.05;;
5776;SDS011;2914;42.668;23.346;2022-12-20T04:21:04;24.63;;;11.25;;
5776;SDS011;2914;42.668;23.346;2022-12-20T04:23:34;14.25;;;8.80;;
5776;SDS011;2914;42.668;23.346;2022-12-20T04:26:05;17.70;;;9.68;;
5776;SDS011;2914;42.668;23.346;2022-12-20T04:28:35;23.25;;;11.43;;
5776;SDS011;2914;42.668;23.346;2022-12-20T04:31:05;25.37;;;9.88;;
5776;SDS011;2914;42.668;23.346;2022-12-20T04:33:34;19.65;;;10.98;;
5776;SDS011;2914;42.668;23.346;2022-12-20T04:36:03;26.12;;;9.90;;
5776;SDS011;2914;42.668;23.346;2022-12-20T04:38:32;26.87;;;11.57;;
5776;SDS011;2914;42.668;23.346;2022-12-20T04:43:57;31.48;;;11.75;;
5776;SDS011;2914;42.668;23.346;2022-12-20T04:46:26;28.65;;;11.60;;
5776;SDS011;2914;42.668;23.346;2022-12-20T04:48:55;23.02;;;10.48;;
5776;SDS011;2914;42.668;23.346;2022-12-20T04:51:24;30.30;;;11.20;;
5776;SDS011;2914;42.668;23.346;2022-12-20T04:53:53;30.50;;;12.13;;
5776;SDS011;2914;42.668;23.346;2022-12-20T04:56:23;33.80;;;12.85;;
5776;SDS011;2914;42.668;23.346;2022-12-20T04:58:54;20.05;;;10.05;;
5776;SDS011;2914;42.668;23.346;2022-12-20T05:01:25;28.67;;;10.38;;
5776;SDS011;2914;42.668;23.346;2022-12-20T05:03:56;22.48;;;10.00;;
5776;SDS011;2914;42.668;23.346;2022-12-20T05:06:25;33.25;;;10.48;;
5776;SDS011;2914;42.668;23.346;2022-12-20T05:08:54;18.17;;;7.30;;
5776;SDS011;2914;42.668;23.346;2022-12-20T05:11:23;25.57;;;9.68;;
5776;SDS011;2914;42.668;23.346;2022-12-20T05:13:52;24.10;;;9.18;;
5776;SDS011;2914;42.668;23.346;2022-12-20T05:22:01;32.05;;;14.38;;
5776;SDS011;2914;42.668;23.346;2022-12-20T05:24:47;19.95;;;10.88;;
5776;SDS011;2914;42.668;23.346;2022-12-20T05:27:34;24.40;;;9.70;;
5776;SDS011;2914;42.668;23.346;2022-12-20T05:30:05;33.23;;;13.15;;
5776;SDS011;2914;42.668;23.346;2022-12-20T05:32:35;24.55;;;10.55;;
5776;SDS011;2914;42.668;23.346;2022-12-20T05:35:05;30.95;;;14.15;;
5776;SDS011;2914;42.668;23.346;2022-12-20T05:37:35;22.07;;;10.90;;
5776;SDS011;2914;42.668;23.346;2022-12-20T05:40:05;33.28;;;12.23;;
5776;SDS011;2914;42.668;23.346;2022-12-20T05:42:36;38.83;;;12.47;;
5776;SDS011;2914;42.668;23.346;2022-12-20T05:45:06;22.20;;;11.03;;
5776;SDS011;2914;42.668;23.346;2022-12-20T05:47:37;19.00;;;10.05;;
5776;SDS011;2914;42.668;23.346;2022-12-20T05:50:07;30.25;;;10.75;;
5776;SDS011;2914;42.668;23.346;2022-12-20T05:55:06;25.27;;;13.05;;
5776;SDS011;2914;42.668;23.346;2022-12-20T05:57:36;25.77;;;10.98;;
5776;SDS011;2914;42.668;23.346;2022-12-20T06:00:10;19.27;;;11.48;;
5776;SDS011;2914;42.668;23.346;2022-12-20T06:02:41;22.80;;;11.90;;
5776;SDS011;2914;42.668;23.346;2022-12-20T06:05:13;19.07;;;11.45;;
5776;SDS011;2914;42.668;23.346;2022-12-20T06:07:42;22.58;;;11.08;;
5776;SDS011;2914;42.668;23.346;2022-12-20T06:10:11;20.25;;;11.63;;
5776;SDS011;2914;42.668;23.346;2022-12-20T06:12:40;20.17;;;11.70;;
5776;SDS011;2914;42.668;23.346;2022-12-20T06:15:10;20.75;;;11.12;;
5776;SDS011;2914;42.668;23.346;2022-12-20T06:17:40;21.57;;;11.05;;
5776;SDS011;2914;42.668;23.346;2022-12-20T06:20:10;19.48;;;10.75;;
5776;SDS011;2914;42.668;23.346;2022-12-20T06:22:39;23.65;;;12.43;;
5776;SDS011;2914;42.668;23.346;2022-12-20T06:30:16;37.25;;;11.05;;
5776;SDS011;2914;42.668;23.346;2022-12-20T06:32:46;20.95;;;10.48;;
5776;SDS011;2914;42.668;23.346;2022-12-20T06:35:15;30.72;;;12.55;;
5776;SDS011;2914;42.668;23.346;2022-12-20T06:37:44;27.87;;;14.13;;
5776;SDS011;2914;42.668;23.346;2022-12-20T06:40:14;24.20;;;12.93;;
5776;SDS011;2914;42.668;23.346;2022-12-20T06:42:43;23.47;;;11.12;;
5776;SDS011;2914;42.668;23.346;2022-12-20T06:45:12;29.85;;;12.05;;
5776;SDS011;2914;42.668;23.346;2022-12-20T06:47:42;28.55;;;12.37;;
5776;SDS011;2914;42.668;23.346;2022-12-20T06:50:11;25.17;;;10.50;;
5776;SDS011;2914;42.668;23.346;2022-12-20T06:52:40;28.23;;;11.70;;
5776;SDS011;2914;42.668;23.346;2022-12-20T06:55:09;31.25;;;12.23;;
5776;SDS011;2914;42.668;23.346;2022-12-20T06:57:38;38.02;;;13.40;;
5776;SDS011;2914;42.668;23.346;2022-12-20T07:00:09;32.23;;;12.98;;
5776;SDS011;2914;42.668;23.346;2022-12-20T07:02:39;41.18;;;14.30;;
5776;SDS011;2914;42.668;23.346;2022-12-20T07:05:09;29.90;;;11.43;;
5776;SDS011;2914;42.668;23.346;2022-12-20T07:09:27;21.12;;;11.73;;
5776;SDS011;2914;42.668;23.346;2022-12-20T07:11:57;30.00;;;11.25;;
5776;SDS011;2914;42.668;23.346;2022-12-20T07:14:26;18.02;;;10.05;;
5776;SDS011;2914;42.668;23.346;2022-12-20T07:16:55;21.68;;;11.28;;
5776;SDS011;2914;42.668;23.346;2022-12-20T07:22:01;25.48;;;11.78;;
5776;SDS011;2914;42.668;23.346;2022-12-20T07:24:31;21.25;;;10.28;;
5776;SDS011;2914;42.668;23.346;2022-12-20T07:27:00;15.15;;;9.25;;
5776;SDS011;2914;42.668;23.346;2022-12-20T07:29:30;26.07;;;11.28;;
5776;SDS011;2914;42.668;23.346;2022-12-20T07:31:59;22.17;;;10.13;;
5776;SDS011;2914;42.668;23.346;2022-12-20T07:34:28;23.67;;;10.35;;
5776;SDS011;2914;42.668;23.346;2022-12-20T07:36:57;29.67;;;11.70;;
5776;SDS011;2914;42.668;23.346;2022-12-20T07:39:26;24.40;;;11.90;;
5776;SDS011;2914;42.668;23.346;2022-12-20T07:44:30;42.13;;;12.58;;
5776;SDS011;2914;42.668;23.346;2022-12-20T07:46:58;23.27;;;11.00;;
5776;SDS011;2914;42.668;23.346;2022-12-20T07:49:28;23.67;;;10.75;;
5776;SDS011;2914;42.668;23.346;2022-12-20T07:51:57;19.67;;;9.08;;
5776;SDS011;2914;42.668;23.346;2022-12-20T07:54:30;19.73;;;10.60;;
5776;SDS011;2914;42.668;23.346;2022-12-20T07:57:02;16.10;;;9.40;;
5776;SDS011;2914;42.668;23.346;2022-12-20T07:59:34;27.30;;;11.60;;
5776;SDS011;2914;42.668;23.346;2022-12-20T08:04:33;23.40;;;9.55;;
5776;SDS011;2914;42.668;23.346;2022-12-20T08:07:02;21.77;;;9.67;;
5776;SDS011;2914;42.668;23.346;2022-12-20T08:09:33;19.75;;;10.15;;
5776;SDS011;2914;42.668;23.346;2022-12-20T08:12:03;20.37;;;10.43;;
5776;SDS011;2914;42.668;23.346;2022-12-20T08:14:34;25.73;;;11.20;;
5776;SDS011;2914;42.668;23.346;2022-12-20T08:17:04;21.97;;;9.43;;
5776;SDS011;2914;42.668;23.346;2022-12-20T08:19:33;23.90;;;11.00;;
5776;SDS011;2914;42.668;23.346;2022-12-20T08:22:03;25.00;;;11.20;;
5776;SDS011;2914;42.668;23.346;2022-12-20T08:24:32;22.97;;;9.90;;
5776;SDS011;2914;42.668;23.346;2022-12-20T08:27:01;18.70;;;9.73;;
5776;SDS011;2914;42.668;23.346;2022-12-20T08:29:30;28.43;;;11.70;;
5776;SDS011;2914;42.668;23.346;2022-12-20T08:31:59;27.00;;;9.97;;
5776;SDS011;2914;42.668;23.346;2022-12-20T08:34:29;33.15;;;11.25;;
5776;SDS011;2914;42.668;23.346;2022-12-20T08:36:58;20.80;;;8.63;;
5776;SDS011;2914;42.668;23.346;2022-12-20T08:39:27;40.80;;;10.80;;
5776;SDS011;2914;42.668;23.346;2022-12-20T08:41:56;26.83;;;10.23;;
5776;SDS011;2914;42.668;23.346;2022-12-20T08:44:25;30.37;;;10.27;;
5776;SDS011;2914;42.668;23.346;2022-12-20T08:46:55;29.73;;;9.63;;
5776;SDS011;2914;42.668;23.346;2022-12-20T08:51:45;16.77;;;8.60;;
5776;SDS011;2914;42.668;23.346;2022-12-20T08:54:14;18.50;;;9.67;;
5776;SDS011;2914;42.668;23.346;2022-12-20T08:56:43;15.77;;;9.73;;
5776;SDS011;2914;42.668;23.346;2022-12-20T08:59:12;20.17;;;10.33;;
5776;SDS011;2914;42.668;23.346;2022-12-20T09:01:41;20.10;;;9.90;;
5776;SDS011;2914;42.668;23.346;2022-12-20T09:04:10;16.60;;;10.13;;
5776;SDS011;2914;42.668;23.346;2022-12-20T09:06:40;20.67;;;10.50;;
5776;SDS011;2914;42.668;23.346;2022-12-20T09:09:09;17.70;;;8.67;;
5776;SDS011;2914;42.668;23.346;2022-12-20T09:11:38;17.27;;;9.50;;
5776;SDS011;2914;42.668;23.346;2022-12-20T09:14:08;15.83;;;9.20;;
5776;SDS011;2914;42.668;23.346;2022-12-20T09:16:37;22.30;;;10.17;;
5776;SDS011;2914;42.668;23.346;2022-12-20T09:19:06;15.37;;;8.70;;
5776;SDS011;2914;42.668;23.346;2022-12-20T09:21:38;16.37;;;10.10;;
5776;SDS011;2914;42.668;23.346;2022-12-20T09:24:08;17.33;;;9.47;;
5776;SDS011;2914;42.668;23.346;2022-12-20T09:26:37;21.27;;;9.07;;
5776;SDS011;2914;42.668;23.346;2022-12-20T09:29:06;14.70;;;8.10;;
5776;SDS011;2914;42.668;23.346;2022-12-20T09:31:35;17.67;;;9.07;;
5776;SDS011;2914;42.668;23.346;2022-12-20T09:34:05;16.13;;;8.90;;
5776;SDS011;2914;42.668;23.346;2022-12-20T09:36:35;13.73;;;7.70;;
5776;SDS011;2914;42.668;23.346;2022-12-20T09:39:04;14.60;;;8.60;;
5776;SDS011;2914;42.668;23.346;2022-12-20T09:41:36;16.50;;;8.90;;
5776;SDS011;2914;42.668;23.346;2022-12-20T09:44:09;13.80;;;8.00;;
5776;SDS011;2914;42.668;23.346;2022-12-20T09:46:40;12.67;;;8.10;;
5776;SDS011;2914;42.668;23.346;2022-12-20T09:49:11;22.03;;;10.67;;
5776;SDS011;2914;42.668;23.346;2022-12-20T09:52:03;18.73;;;8.43;;
5776;SDS011;2914;42.668;23.346;2022-12-20T09:54:38;15.90;;;10.07;;
5776;SDS011;2914;42.668;23.346;2022-12-20T09:57:13;24.43;;;9.93;;
5776;SDS011;2914;42.668;23.346;2022-12-20T09:59:43;17.00;;;8.23;;
5776;SDS011;2914;42.668;23.346;2022-12-20T10:02:13;17.47;;;8.67;;
5776;SDS011;2914;42.668;23.346;2022-12-20T10:04:44;19.13;;;9.07;;
5776;SDS011;2914;42.668;23.346;2022-12-20T10:07:17;18.15;;;8.73;;
5776;SDS011;2914;42.668;23.346;2022-12-20T10:09:54;22.62;;;9.73;;
5776;SDS011;2914;42.668;23.346;2022-12-20T10:12:40;23.55;;;10.10;;
5776;SDS011;2914;42.668;23.346;2022-12-20T10:15:16;17.60;;;8.75;;
5776;SDS011;2914;42.668;23.346;2022-12-20T10:17:52;32.10;;;10.87;;
5776;SDS011;2914;42.668;23.346;2022-12-20T10:27:14;31.70;;;12.10;;
5776;SDS011;2914;42.668;23.346;2022-12-20T10:29:44;17.90;;;9.40;;
5776;SDS011;2914;42.668;23.346;2022-12-20T10:32:16;26.63;;;9.93;;
5776;SDS011;2914;42.668;23.346;2022-12-20T10:34:51;21.90;;;8.73;;
5776;SDS011;2914;42.668;23.346;2022-12-20T10:37:21;27.87;;;10.53;;
5776;SDS011;2914;42.668;23.346;2022-12-20T10:39:50;20.70;;;8.90;;
5776;SDS011;2914;42.668;23.346;2022-12-20T10:42:23;26.90;;;9.23;;
5776;SDS011;2914;42.668;23.346;2022-12-20T10:44:55;22.10;;;8.97;;
5776;SDS011;2914;42.668;23.346;2022-12-20T10:47:39;14.10;;;8.23;;
5776;SDS011;2914;42.668;23.346;2022-12-20T10:50:13;10.80;;;7.63;;
5776;SDS011;2914;42.668;23.346;2022-12-20T10:52:44;11.77;;;7.60;;
5776;SDS011;2914;42.668;23.346;2022-12-20T10:55:36;12.03;;;7.13;;
5776;SDS011;2914;42.668;23.346;2022-12-20T10:58:11;12.13;;;7.30;;
5776;SDS011;2914;42.668;23.346;2022-12-20T11:00:42;11.40;;;7.53;;
5776;SDS011;2914;42.668;23.346;2022-12-20T11:03:15;13.50;;;7.50;;
5776;SDS011;2914;42.668;23.346;2022-12-20T11:05:53;11.33;;;7.30;;
5776;SDS011;2914;42.668;23.346;2022-12-20T11:08:25;16.93;;;8.40;;
5776;SDS011;2914;42.668;23.346;2022-12-20T11:11:12;10.20;;;6.53;;
5776;SDS011;2914;42.668;23.346;2022-12-20T11:13:44;19.90;;;7.77;;
5776;SDS011;2914;42.668;23.346;2022-12-20T11:16:24;15.33;;;8.50;;
5776;SDS011;2914;42.668;23.346;2022-12-20T11:19:09;13.63;;;7.67;;
5776;SDS011;2914;42.668;23.346;2022-12-20T11:21:57;10.47;;;6.83;;
5776;SDS011;2914;42.668;23.346;2022-12-20T11:24:30;16.73;;;8.10;;
5776;SDS011;2914;42.668;23.346;2022-12-20T11:27:08;13.60;;;7.20;;
5776;SDS011;2914;42.668;23.346;2022-12-20T11:32:39;17.63;;;7.80;;
5776;SDS011;2914;42.668;23.346;2022-12-20T11:35:36;12.10;;;6.33;;
5776;SDS011;2914;42.668;23.346;2022-12-20T11:38:10;17.63;;;8.70;;
5776;SDS011;2914;42.668;23.346;2022-12-20T11:40:43;12.40;;;6.93;;
5776;SDS011;2914;42.668;23.346;2022-12-20T11:43:29;21.00;;;7.00;;
5776;SDS011;2914;42.668;23.346;2022-12-20T11:49:02;20.50;;;7.20;;
5776;SDS011;2914;42.668;23.346;2022-12-20T11:51:39;9.87;;;6.43;;
5776;SDS011;2914;42.668;23.346;2022-12-20T11:54:11;13.03;;;7.00;;
5776;SDS011;2914;42.668;23.346;2022-12-20T11:56:44;10.93;;;6.63;;
5776;SDS011;2914;42.668;23.346;2022-12-20T11:59:17;11.60;;;6.90;;
5776;SDS011;2914;42.668;23.346;2022-12-20T12:01:51;15.83;;;7.63;;
5776;SDS011;2914;42.668;23.346;2022-12-20T12:04:24;18.43;;;7.77;;
5776;SDS011;2914;42.668;23.346;2022-12-20T12:06:56;13.13;;;7.40;;
5776;SDS011;2914;42.668;23.346;2022-12-20T12:09:28;22.10;;;9.10;;
5776;SDS011;2914;42.668;23.346;2022-12-20T12:12:00;12.40;;;7.30;;
5776;SDS011;2914;42.668;23.346;2022-12-20T12:14:34;10.50;;;6.93;;
5776;SDS011;2914;42.668;23.346;2022-12-20T12:17:17;13.57;;;6.87;;
5776;SDS011;2914;42.668;23.346;2022-12-20T12:19:47;13.40;;;7.50;;
5776;SDS011;2914;42.668;23.346;2022-12-20T12:22:19;28.63;;;9.60;;
5776;SDS011;2914;42.668;23.346;2022-12-20T12:24:51;10.27;;;6.10;;
5776;SDS011;2914;42.668;23.346;2022-12-20T12:27:24;13.60;;;6.73;;
5776;SDS011;2914;42.668;23.346;2022-12-20T12:29:54;15.53;;;6.60;;
5776;SDS011;2914;42.668;23.346;2022-12-20T12:32:26;17.07;;;7.23;;
5776;SDS011;2914;42.668;23.346;2022-12-20T12:35:04;10.13;;;6.50;;
5776;SDS011;2914;42.668;23.346;2022-12-20T12:37:50;10.87;;;5.97;;
5776;SDS011;2914;42.668;23.346;2022-12-20T12:40:36;15.03;;;7.40;;
5776;SDS011;2914;42.668;23.346;2022-12-20T12:46:21;10.23;;;5.73;;
5776;SDS011;2914;42.668;23.346;2022-12-20T12:48:53;11.40;;;5.77;;
5776;SDS011;2914;42.668;23.346;2022-12-20T12:51:26;12.80;;;6.23;;
5776;SDS011;2914;42.668;23.346;2022-12-20T12:54:02;12.17;;;6.20;;
5776;SDS011;2914;42.668;23.346;2022-12-20T12:56:41;8.60;;;5.60;;
5776;SDS011;2914;42.668;23.346;2022-12-20T12:59:20;8.63;;;6.23;;
5776;SDS011;2914;42.668;23.346;2022-12-20T13:02:25;6.00;;;5.40;;
5776;SDS011;2914;42.668;23.346;2022-12-20T13:08:02;14.40;;;5.33;;
5776;SDS011;2914;42.668;23.346;2022-12-20T13:13:25;8.53;;;5.47;;
5776;SDS011;2914;42.668;23.346;2022-12-20T13:16:04;12.37;;;6.50;;
5776;SDS011;2914;42.668;23.346;2022-12-20T13:18:42;16.53;;;6.13;;
5776;SDS011;2914;42.668;23.346;2022-12-20T13:21:30;8.87;;;5.70;;
5776;SDS011;2914;42.668;23.346;2022-12-20T13:27:29;7.27;;;5.03;;
5776;SDS011;2914;42.668;23.346;2022-12-20T13:38:59;12.23;;;5.27;;
5776;SDS011;2914;42.668;23.346;2022-12-20T13:41:34;14.20;;;6.50;;
5776;SDS011;2914;42.668;23.346;2022-12-20T13:44:17;12.10;;;6.57;;
5776;SDS011;2914;42.668;23.346;2022-12-20T13:46:51;13.13;;;6.60;;
5776;SDS011;2914;42.668;23.346;2022-12-20T13:49:24;11.83;;;6.63;;
5776;SDS011;2914;42.668;23.346;2022-12-20T13:52:11;19.13;;;9.70;;
5776;SDS011;2914;42.668;23.346;2022-12-20T13:57:43;20.73;;;10.47;;
5776;SDS011;2914;42.668;23.346;2022-12-20T14:00:15;15.03;;;9.67;;
5776;SDS011;2914;42.668;23.346;2022-12-20T14:03:00;40.20;;;12.53;;
5776;SDS011;2914;42.668;23.346;2022-12-20T14:05:34;28.33;;;11.13;;
5776;SDS011;2914;42.668;23.346;2022-12-20T14:08:05;20.03;;;10.10;;
5776;SDS011;2914;42.668;23.346;2022-12-20T14:10:36;30.03;;;10.97;;
5776;SDS011;2914;42.668;23.346;2022-12-20T14:13:13;26.13;;;12.20;;
5776;SDS011;2914;42.668;23.346;2022-12-20T14:16:07;16.30;;;11.23;;
5776;SDS011;2914;42.668;23.346;2022-12-20T14:18:39;24.57;;;11.90;;
5776;SDS011;2914;42.668;23.346;2022-12-20T14:21:09;26.87;;;12.63;;
5776;SDS011;2914;42.668;23.346;2022-12-20T14:23:38;30.37;;;12.90;;
5776;SDS011;2914;42.668;23.346;2022-12-20T14:26:10;40.67;;;11.97;;
5776;SDS011;2914;42.668;23.346;2022-12-20T14:28:42;41.47;;;11.67;;
5776;SDS011;2914;42.668;23.346;2022-12-20T14:31:22;26.13;;;13.00;;
5776;SDS011;2914;42.668;23.346;2022-12-20T14:34:03;25.10;;;13.20;;
5776;SDS011;2914;42.668;23.346;2022-12-20T14:36:35;25.87;;;11.10;;
5776;SDS011;2914;42.668;23.346;2022-12-20T14:39:21;24.77;;;12.30;;
5776;SDS011;2914;42.668;23.346;2022-12-20T14:41:55;27.73;;;11.50;;
5776;SDS011;2914;42.668;23.346;2022-12-20T14:44:25;33.43;;;12.27;;
5776;SDS011;2914;42.668;23.346;2022-12-20T14:46:56;21.30;;;10.53;;
5776;SDS011;2914;42.668;23.346;2022-12-20T14:49:27;22.43;;;10.47;;
5776;SDS011;2914;42.668;23.346;2022-12-20T14:52:10;17.97;;;8.53;;
5776;SDS011;2914;42.668;23.346;2022-12-20T14:54:42;19.03;;;8.30;;
5776;SDS011;2914;42.668;23.346;2022-12-20T14:57:19;16.67;;;7.93;;
5776;SDS011;2914;42.668;23.346;2022-12-20T14:59:58;12.80;;;6.60;;
5776;SDS011;2914;42.668;23.346;2022-12-20T15:02:35;15.23;;;7.10;;
5776;SDS011;2914;42.668;23.346;2022-12-20T15:05:08;14.50;;;7.20;;
5776;SDS011;2914;42.668;23.346;2022-12-20T15:10:28;13.53;;;7.27;;
5776;SDS011;2914;42.668;23.346;2022-12-20T15:12:57;10.10;;;6.57;;
5776;SDS011;2914;42.668;23.346;2022-12-20T15:15:27;7.63;;;5.87;;
5776;SDS011;2914;42.668;23.346;2022-12-20T15:18:31;10.13;;;6.10;;
5776;SDS011;2914;42.668;23.346;2022-12-20T15:21:02;10.10;;;5.90;;
5776;SDS011;2914;42.668;23.346;2022-12-20T15:23:33;6.70;;;5.50;;
5776;SDS011;2914;42.668;23.346;2022-12-20T15:26:03;10.63;;;6.20;;
5776;SDS011;2914;42.668;23.346;2022-12-20T15:28:32;13.03;;;6.57;;
5776;SDS011;2914;42.668;23.346;2022-12-20T15:31:01;12.87;;;6.90;;
5776;SDS011;2914;42.668;23.346;2022-12-20T15:33:31;12.63;;;6.90;;
5776;SDS011;2914;42.668;23.346;2022-12-20T15:36:04;9.60;;;6.57;;
5776;SDS011;2914;42.668;23.346;2022-12-20T15:38:35;12.33;;;6.50;;
5776;SDS011;2914;42.668;23.346;2022-12-20T15:41:04;14.00;;;5.50;;
5776;SDS011;2914;42.668;23.346;2022-12-20T15:43:37;16.80;;;7.33;;
5776;SDS011;2914;42.668;23.346;2022-12-20T15:46:07;17.53;;;6.13;;
5776;SDS011;2914;42.668;23.346;2022-12-20T15:48:37;11.57;;;6.33;;
5776;SDS011;2914;42.668;23.346;2022-12-20T15:51:16;13.58;;;6.85;;
5776;SDS011;2914;42.668;23.346;2022-12-20T15:53:50;8.90;;;5.73;;
5776;SDS011;2914;42.668;23.346;2022-12-20T15:56:20;22.60;;;8.20;;
5776;SDS011;2914;42.668;23.346;2022-12-20T15:58:58;8.27;;;5.47;;
5776;SDS011;2914;42.668;23.346;2022-12-20T16:01:28;11.88;;;6.25;;
5776;SDS011;2914;42.668;23.346;2022-12-20T16:05:00;12.18;;;7.12;;
5776;SDS011;2914;42.668;23.346;2022-12-20T16:07:30;16.07;;;8.63;;
5776;SDS011;2914;42.668;23.346;2022-12-20T16:10:14;11.18;;;6.75;;
5776;SDS011;2914;42.668;23.346;2022-12-20T16:12:43;9.30;;;5.33;;
5776;SDS011;2914;42.668;23.346;2022-12-20T16:15:18;7.17;;;5.07;;
5776;SDS011;2914;42.668;23.346;2022-12-20T16:18:30;13.65;;;6.78;;
5776;SDS011;2914;42.668;23.346;2022-12-20T16:21:13;15.08;;;7.45;;
5776;SDS011;2914;42.668;23.346;2022-12-20T16:23:45;12.28;;;5.92;;
5776;SDS011;2914;42.668;23.346;2022-12-20T16:26:16;26.17;;;6.10;;
5776;SDS011;2914;42.668;23.346;2022-12-20T16:28:48;13.30;;;6.40;;
5776;SDS011;2914;42.668;23.346;2022-12-20T16:31:21;10.03;;;5.40;;
5776;SDS011;2914;42.668;23.346;2022-12-20T16:33:52;8.50;;;5.67;;